createdAt,value
2022-08-20T00:01:08.853Z,81.21
2022-08-20T00:03:41.312Z,81.08
2022-08-20T00:06:23.491Z,81.00
2022-08-20T00:08:51.027Z,79.89
2022-08-20T00:11:21.366Z,79.52
2022-08-20T00:13:53.524Z,79.34
2022-08-20T00:16:23.215Z,79.27
2022-08-20T00:18:50.111Z,78.78
2022-08-20T00:21:18.878Z,78.66
2022-08-20T00:23:48.360Z,78.25
2022-08-20T00:26:15.992Z,78.13
2022-08-20T00:28:42.451Z,77.37
2022-08-20T00:31:11.812Z,77.46
2022-08-20T00:33:38.940Z,77.02
2022-08-20T00:36:09.366Z,76.90
2022-08-20T00:38:37.843Z,76.91
2022-08-20T00:41:06.052Z,76.30
2022-08-20T00:43:32.559Z,76.28
2022-08-20T00:46:02.364Z,76.64
2022-08-20T00:48:32.041Z,76.00
2022-08-20T00:51:30.804Z,76.42
2022-08-20T00:54:05.725Z,76.26
2022-08-20T00:56:35.985Z,75.88
2022-08-20T00:59:05.564Z,75.79
2022-08-20T01:01:34.505Z,75.77
2022-08-20T01:04:20.961Z,75.88
2022-08-20T01:06:48.572Z,75.92
2022-08-20T01:09:15.091Z,75.55
2022-08-20T01:11:42.484Z,75.88
2022-08-20T01:14:23.966Z,76.01
2022-08-20T01:16:54.982Z,76.24
2022-08-20T01:19:29.498Z,75.75
2022-08-20T01:21:58.081Z,75.53
2022-08-20T01:24:35.726Z,76.07
2022-08-20T01:27:05.644Z,75.59
2022-08-20T01:29:39.246Z,75.72
2022-08-20T01:32:06.554Z,75.18
2022-08-20T01:34:33.561Z,75.46
2022-08-20T01:37:00.504Z,75.11
2022-08-20T01:39:31.007Z,75.15
2022-08-20T01:42:07.890Z,75.54
2022-08-20T01:44:37.411Z,74.36
2022-08-20T01:47:20.273Z,74.81
2022-08-20T01:49:51.773Z,74.10
2022-08-20T01:52:42.802Z,74.26
2022-08-20T01:55:10.201Z,73.42
2022-08-20T01:57:37.826Z,72.72
2022-08-20T02:00:19.086Z,72.48
2022-08-20T02:02:46.752Z,71.28
2022-08-20T02:05:13.343Z,71.26
2022-08-20T02:07:39.782Z,70.94
2022-08-20T02:10:09.158Z,70.64
2022-08-20T02:12:35.760Z,71.00
2022-08-20T02:15:02.449Z,70.77
2022-08-20T02:17:29.330Z,70.76
2022-08-20T02:20:00.408Z,71.16
2022-08-20T02:22:44.261Z,71.07
2022-08-20T02:25:22.860Z,71.12
2022-08-20T02:27:51.787Z,70.83
2022-08-20T02:30:28.078Z,71.49
2022-08-20T02:32:56.344Z,71.29
2022-08-20T02:35:23.640Z,71.34
2022-08-20T02:37:50.844Z,71.69
2022-08-20T02:40:19.340Z,71.91
2022-08-20T02:42:58.462Z,71.89
2022-08-20T02:45:24.916Z,72.49
2022-08-20T02:47:56.622Z,72.28
2022-08-20T02:50:25.432Z,72.64
2022-08-20T02:52:52.420Z,73.03
2022-08-20T02:55:26.986Z,73.40
2022-08-20T02:57:58.567Z,73.50
2022-08-20T03:00:26.378Z,73.64
2022-08-20T03:02:52.888Z,74.00
2022-08-20T03:05:19.451Z,74.09
2022-08-20T03:07:48.309Z,74.21
2022-08-20T03:10:16.052Z,74.74
2022-08-20T03:12:42.702Z,75.03
2022-08-20T03:15:17.561Z,75.23
2022-08-20T03:17:45.297Z,75.51
2022-08-20T03:20:13.109Z,75.70
2022-08-20T03:22:40.090Z,75.99
2022-08-20T03:25:07.264Z,76.06
2022-08-20T03:27:36.326Z,76.29
2022-08-20T03:30:06.149Z,76.64
2022-08-20T03:32:32.590Z,76.33
2022-08-20T03:34:59.031Z,76.57
2022-08-20T03:37:25.517Z,77.00
2022-08-20T03:39:52.114Z,76.97
2022-08-20T03:42:18.619Z,77.39
2022-08-20T03:44:45.085Z,77.63
2022-08-20T03:47:11.896Z,77.34
2022-08-20T03:49:38.369Z,77.81
2022-08-20T03:52:06.095Z,78.28
2022-08-20T03:54:32.568Z,78.14
2022-08-20T03:57:01.119Z,78.65
2022-08-20T03:59:27.587Z,78.40
2022-08-20T04:01:54.682Z,78.60
2022-08-20T04:04:22.080Z,79.14
2022-08-20T04:06:48.577Z,79.28
2022-08-20T04:09:15.891Z,79.44
2022-08-20T04:11:43.261Z,79.79
2022-08-20T04:14:11.522Z,80.29
2022-08-20T04:16:43.100Z,80.42
2022-08-20T04:19:09.696Z,80.71
2022-08-20T04:21:36.511Z,80.59
2022-08-20T04:24:04.919Z,81.41
2022-08-20T04:26:32.233Z,81.13
2022-08-20T04:28:58.850Z,81.37
2022-08-20T04:31:25.718Z,81.47
2022-08-20T04:33:52.626Z,81.80
2022-08-20T04:36:19.426Z,81.98
2022-08-20T04:38:49.542Z,82.27
2022-08-20T04:41:23.236Z,82.23
2022-08-20T04:43:54.423Z,82.70
2022-08-20T04:46:23.862Z,82.68
2022-08-20T04:48:50.764Z,82.60
2022-08-20T04:51:18.744Z,83.00
2022-08-20T04:53:51.683Z,83.22
2022-08-20T04:56:23.758Z,83.23
2022-08-20T04:58:52.978Z,83.45
2022-08-20T05:01:20.345Z,83.70
2022-08-20T05:03:49.839Z,83.80
2022-08-20T05:06:18.125Z,83.59
2022-08-20T05:08:45.229Z,83.77
2022-08-20T05:11:33.052Z,83.60
2022-08-20T05:13:58.767Z,83.37
2022-08-20T05:16:25.309Z,83.10
2022-08-20T05:18:52.630Z,83.27
2022-08-20T05:21:20.378Z,82.97
2022-08-20T05:23:46.862Z,82.54
2022-08-20T05:26:15.145Z,82.34
2022-08-20T05:28:49.959Z,82.20
2022-08-20T05:31:23.680Z,81.72
2022-08-20T05:33:59.335Z,81.20
2022-08-20T05:36:25.719Z,80.56
2022-08-20T05:38:53.823Z,80.45
2022-08-20T05:41:28.436Z,80.28
2022-08-20T05:43:57.240Z,80.15
2022-08-20T05:46:23.804Z,79.52
2022-08-20T05:48:50.237Z,79.37
2022-08-20T05:51:16.688Z,79.33
2022-08-20T05:53:43.853Z,79.16
2022-08-20T05:56:11.371Z,79.07
2022-08-20T05:58:37.991Z,78.87
2022-08-20T06:01:04.925Z,78.59
2022-08-20T06:03:50.184Z,78.36
2022-08-20T06:06:36.763Z,78.60
2022-08-20T06:09:03.625Z,78.41
2022-08-20T06:11:32.693Z,78.40
2022-08-20T06:14:03.837Z,78.02
2022-08-20T06:16:30.462Z,77.91
2022-08-20T06:18:58.685Z,77.95
2022-08-20T06:21:25.659Z,78.07
2022-08-20T06:23:57.178Z,78.02
2022-08-20T06:26:30.088Z,78.13
2022-08-20T06:29:00.698Z,78.31
2022-08-20T06:31:27.458Z,78.64
2022-08-20T06:36:20.387Z,78.67
2022-08-20T06:38:46.829Z,78.62
2022-08-20T06:41:13.916Z,78.75
2022-08-20T06:43:40.594Z,78.67
2022-08-20T06:46:07.266Z,78.87
2022-08-20T06:48:34.338Z,78.77
2022-08-20T06:51:01.409Z,78.08
2022-08-20T06:53:28.927Z,77.16
2022-08-20T06:55:58.812Z,76.99
2022-08-20T06:58:37.663Z,76.36
2022-08-20T07:01:10.384Z,76.44
2022-08-20T07:03:55.461Z,76.76
2022-08-20T07:06:24.925Z,75.82
2022-08-20T07:08:51.439Z,75.07
2022-08-20T07:11:17.931Z,74.31
2022-08-20T07:13:45.330Z,73.32
2022-08-20T07:16:12.188Z,72.78
2022-08-20T07:18:38.703Z,72.11
2022-08-20T07:21:05.366Z,71.47
2022-08-20T07:23:31.945Z,71.30
2022-08-20T07:25:58.876Z,71.15
2022-08-20T07:28:32.010Z,71.31
2022-08-20T07:31:17.900Z,70.92
2022-08-20T07:33:46.914Z,70.89
2022-08-20T07:36:17.813Z,71.71
2022-08-20T07:38:47.011Z,70.34
2022-08-20T07:41:14.925Z,69.86
2022-08-20T07:43:45.134Z,70.15
2022-08-20T07:46:13.923Z,69.84
2022-08-20T07:48:46.110Z,68.66
2022-08-20T07:51:17.779Z,67.32
2022-08-20T07:53:46.261Z,66.49
2022-08-20T07:56:15.510Z,65.35
2022-08-20T07:58:50.294Z,64.52
2022-08-20T08:01:25.534Z,64.49
2022-08-20T08:03:52.867Z,63.50
2022-08-20T08:06:29.503Z,63.65
2022-08-20T08:09:01.846Z,62.43
2022-08-20T08:11:28.345Z,60.03
2022-08-20T08:13:54.838Z,59.84
2022-08-20T08:16:21.823Z,58.57
2022-08-20T08:18:56.629Z,59.33
2022-08-20T08:21:23.630Z,58.91
2022-08-20T08:23:50.218Z,59.30
2022-08-20T08:26:19.298Z,59.88
2022-08-20T08:28:46.892Z,59.75
2022-08-20T08:31:14.715Z,60.42
2022-08-20T08:33:41.540Z,60.33
2022-08-20T08:36:11.529Z,60.58
2022-08-20T08:38:40.473Z,59.76
2022-08-20T08:41:20.306Z,59.39
2022-08-20T08:43:47.946Z,60.28
2022-08-20T08:46:22.480Z,59.73
2022-08-20T08:48:53.502Z,59.07
2022-08-20T08:51:30.344Z,58.75
2022-08-20T08:53:57.543Z,59.02
2022-08-20T08:56:27.376Z,58.76
2022-08-20T08:58:55.600Z,56.32
2022-08-20T09:01:54.541Z,53.72
2022-08-20T09:04:12.552Z,54.93
2022-08-20T09:06:40.472Z,56.03
2022-08-20T09:09:21.476Z,56.00
2022-08-20T09:11:52.972Z,55.96
2022-08-20T09:14:20.563Z,53.73
2022-08-20T09:16:52.948Z,52.34
2022-08-20T09:19:20.755Z,52.01
2022-08-20T09:21:47.338Z,52.30
2022-08-20T09:24:13.817Z,53.02
2022-08-20T09:26:40.588Z,51.79
2022-08-20T09:29:07.284Z,51.10
2022-08-20T09:31:33.855Z,51.09
2022-08-20T09:34:00.329Z,51.26
2022-08-20T09:36:31.874Z,51.78
2022-08-20T09:39:00.492Z,50.93
2022-08-20T09:41:28.991Z,52.46
2022-08-20T09:43:55.482Z,49.37
2022-08-20T09:46:27.317Z,48.59
2022-08-20T09:48:54.493Z,49.10
2022-08-20T09:51:21.408Z,49.16
2022-08-20T09:53:49.042Z,48.34
2022-08-20T09:56:15.835Z,47.41
2022-08-20T09:58:52.047Z,48.51
2022-08-20T10:01:21.183Z,46.76
2022-08-20T10:03:49.125Z,47.20
2022-08-20T10:06:17.772Z,48.07
2022-08-20T10:08:44.505Z,47.77
2022-08-20T10:11:11.361Z,47.66
2022-08-20T10:13:37.918Z,47.64
2022-08-20T10:16:05.317Z,47.94
2022-08-20T10:18:31.739Z,47.59
2022-08-20T10:20:58.431Z,47.77
2022-08-20T10:23:24.890Z,47.95
2022-08-20T10:25:51.594Z,48.59
2022-08-20T10:28:18.035Z,48.68
2022-08-20T10:30:45.209Z,49.00
2022-08-20T10:33:11.637Z,48.44
2022-08-20T10:35:38.053Z,48.55
2022-08-20T10:38:04.522Z,49.05
2022-08-20T10:40:31.043Z,48.58
2022-08-20T10:42:57.480Z,48.58
2022-08-20T10:45:25.715Z,49.01
2022-08-20T10:47:52.416Z,49.25
2022-08-20T10:50:20.248Z,48.46
2022-08-20T10:52:47.126Z,48.42
2022-08-20T10:55:13.983Z,47.91
2022-08-20T10:57:41.411Z,48.49
2022-08-20T11:00:12.328Z,48.97
2022-08-20T11:02:38.922Z,47.11
2022-08-20T11:05:06.771Z,47.43
2022-08-20T11:07:54.828Z,47.28
2022-08-20T11:10:26.940Z,46.63
2022-08-20T11:12:53.533Z,46.99
2022-08-20T11:15:20.232Z,45.83
2022-08-20T11:17:46.774Z,46.28
2022-08-20T11:20:15.703Z,44.52
2022-08-20T11:22:42.126Z,44.27
2022-08-20T11:25:09.365Z,43.27
2022-08-20T11:27:39.605Z,43.31
2022-08-20T11:30:10.501Z,43.38
2022-08-20T11:32:37.144Z,42.59
2022-08-20T11:35:24.522Z,42.93
2022-08-20T11:37:52.386Z,42.50
2022-08-20T11:40:19.001Z,42.63
2022-08-20T11:43:11.067Z,42.05
2022-08-20T11:45:37.390Z,42.07
2022-08-20T11:48:04.395Z,40.80
2022-08-20T11:50:30.863Z,41.73
2022-08-20T11:52:57.320Z,41.53
2022-08-20T11:55:28.475Z,39.88
2022-08-20T11:58:00.010Z,39.65
2022-08-20T12:00:32.859Z,40.13
2022-08-20T12:03:08.633Z,38.98
2022-08-20T12:05:36.269Z,39.24
2022-08-20T12:08:03.739Z,37.92
2022-08-20T12:10:30.381Z,37.88
2022-08-20T12:12:57.161Z,37.23
2022-08-20T12:15:26.641Z,37.24
2022-08-20T12:17:54.148Z,37.50
2022-08-20T12:20:20.773Z,36.64
2022-08-20T12:22:47.304Z,36.07
2022-08-20T12:25:13.863Z,37.08
2022-08-20T12:27:41.463Z,37.16
2022-08-20T12:30:14.415Z,36.79
2022-08-20T12:32:42.268Z,36.21
2022-08-20T12:35:10.508Z,35.73
2022-08-20T12:37:37.373Z,36.49
2022-08-20T12:40:07.389Z,36.52
2022-08-20T12:42:34.031Z,37.38
2022-08-20T12:45:01.136Z,36.88
2022-08-20T12:47:30.903Z,36.34
2022-08-20T12:50:01.087Z,36.79
2022-08-20T12:52:29.721Z,36.58
2022-08-20T12:54:57.325Z,36.27
2022-08-20T12:57:25.624Z,37.44
2022-08-20T12:59:52.305Z,36.95
2022-08-20T13:02:19.148Z,37.47
2022-08-20T13:04:45.736Z,35.82
2022-08-20T13:07:13.496Z,37.02
2022-08-20T13:09:41.219Z,37.80
2022-08-20T13:12:08.589Z,38.28
2022-08-20T13:14:36.177Z,37.90
2022-08-20T13:17:03.457Z,38.03
2022-08-20T13:19:31.256Z,38.93
2022-08-20T13:21:57.806Z,38.00
2022-08-20T13:24:24.295Z,37.68
2022-08-20T13:26:50.861Z,37.25
2022-08-20T13:29:18.912Z,37.97
2022-08-20T13:31:45.482Z,37.85
2022-08-20T13:34:12.503Z,37.74
2022-08-20T13:36:39.110Z,37.89
2022-08-20T13:39:06.883Z,36.78
2022-08-20T13:41:33.806Z,36.99
2022-08-20T13:44:00.249Z,36.55
2022-08-20T13:46:26.690Z,36.77
2022-08-20T13:48:53.094Z,37.18
2022-08-20T13:51:19.544Z,36.68
2022-08-20T13:53:48.192Z,37.12
2022-08-20T13:56:14.602Z,36.90
2022-08-20T13:58:41.052Z,37.64
2022-08-20T14:01:07.611Z,36.69
2022-08-20T14:03:35.276Z,37.01
2022-08-20T14:06:03.439Z,36.69
2022-08-20T14:08:30.202Z,36.41
2022-08-20T14:10:56.934Z,35.80
2022-08-20T14:13:25.628Z,36.03
2022-08-20T14:15:52.453Z,35.74
2022-08-20T14:18:19.851Z,35.03
2022-08-20T14:20:46.369Z,35.46
2022-08-20T14:23:13.370Z,34.69
2022-08-20T14:25:40.023Z,34.86
2022-08-20T14:28:18.053Z,35.11
2022-08-20T14:30:46.428Z,34.63
2022-08-20T14:33:20.094Z,34.17
2022-08-20T14:35:46.537Z,35.08
2022-08-20T14:38:12.967Z,34.61
2022-08-20T14:40:39.581Z,35.30
2022-08-20T14:43:06.150Z,35.23
2022-08-20T14:45:32.591Z,35.12
2022-08-20T14:47:59.806Z,35.12
2022-08-20T14:50:28.046Z,35.40
2022-08-20T14:52:55.861Z,35.43
2022-08-20T14:55:25.694Z,35.73
2022-08-20T14:57:52.067Z,36.53
2022-08-20T15:00:28.363Z,34.93
2022-08-20T15:02:55.278Z,34.79
2022-08-20T15:05:22.140Z,34.35
2022-08-20T15:07:53.960Z,34.85
2022-08-20T15:10:28.009Z,34.92
2022-08-20T15:12:55.052Z,33.92
2022-08-20T15:15:21.968Z,34.93
2022-08-20T15:17:55.064Z,35.45
2022-08-20T15:20:25.318Z,35.45
2022-08-20T15:22:52.010Z,35.37
2022-08-20T15:25:22.106Z,35.21
2022-08-20T15:27:49.084Z,35.06
2022-08-20T15:30:19.749Z,35.26
2022-08-20T15:32:50.234Z,34.90
2022-08-20T15:35:19.386Z,34.73
2022-08-20T15:37:49.038Z,34.72
2022-08-20T15:40:23.492Z,35.01
2022-08-20T15:42:53.763Z,35.37
2022-08-20T15:45:21.956Z,35.01
2022-08-20T15:48:00.088Z,34.95
2022-08-20T15:51:03.164Z,35.71
2022-08-20T15:53:50.351Z,34.95
2022-08-20T15:56:52.098Z,35.59
2022-08-20T15:59:26.021Z,35.02
2022-08-20T16:02:29.292Z,35.08
2022-08-20T16:05:32.742Z,35.10
2022-08-20T16:08:20.499Z,35.40
2022-08-20T16:11:20.051Z,35.62
2022-08-20T16:14:13.997Z,36.23
2022-08-20T16:17:01.187Z,35.83
2022-08-20T16:19:36.253Z,35.77
2022-08-20T16:22:04.305Z,35.82
2022-08-20T16:24:31.706Z,34.76
2022-08-20T16:27:30.524Z,35.03
2022-08-20T16:30:03.925Z,34.95
2022-08-20T16:32:30.743Z,35.22
2022-08-20T16:35:10.131Z,35.84
2022-08-20T16:37:51.322Z,35.16
2022-08-20T16:40:20.518Z,33.27
2022-08-20T16:42:51.384Z,33.47
2022-08-20T16:45:26.328Z,34.16
2022-08-20T16:47:56.903Z,34.37
2022-08-20T16:50:28.791Z,33.99
2022-08-20T16:52:55.442Z,33.43
2022-08-20T16:55:23.280Z,33.89
2022-08-20T16:57:52.774Z,34.45
2022-08-20T17:00:35.277Z,34.96
2022-08-20T17:03:08.804Z,34.95
2022-08-20T17:05:37.922Z,34.58
2022-08-20T17:08:07.174Z,35.77
2022-08-20T17:10:54.685Z,36.76
2022-08-20T17:13:28.260Z,37.20
2022-08-20T17:16:07.265Z,37.21
2022-08-20T17:18:37.199Z,37.00
2022-08-20T17:21:05.716Z,36.56
2022-08-20T17:23:54.578Z,36.87
2022-08-20T17:26:30.388Z,36.65
2022-08-20T17:29:10.508Z,36.88
2022-08-20T17:31:43.158Z,37.24
2022-08-20T17:34:25.336Z,37.63
2022-08-20T17:36:57.742Z,37.74
2022-08-20T17:39:27.574Z,38.18
2022-08-20T17:42:25.634Z,38.13
2022-08-20T17:45:21.287Z,38.51
2022-08-20T17:47:47.967Z,38.20
2022-08-20T17:50:38.364Z,38.67
2022-08-20T17:53:29.487Z,38.98
2022-08-20T17:56:08.566Z,39.62
2022-08-20T17:58:54.392Z,40.14
2022-08-20T18:01:22.923Z,40.44
2022-08-20T18:03:51.543Z,41.17
2022-08-20T18:06:31.066Z,41.30
2022-08-20T18:09:04.626Z,41.99
2022-08-20T18:11:45.333Z,42.04
2022-08-20T18:14:23.938Z,42.91
2022-08-20T18:17:08.389Z,43.44
2022-08-20T18:19:37.592Z,44.15
2022-08-20T18:22:33.191Z,44.51
2022-08-20T18:25:24.960Z,44.71
2022-08-20T18:27:55.277Z,45.73
2022-08-20T18:30:23.533Z,46.20
2022-08-20T18:33:08.740Z,46.55
2022-08-20T18:35:46.219Z,47.29
2022-08-20T18:38:21.747Z,47.45
2022-08-20T18:40:50.947Z,48.17
2022-08-20T18:43:30.343Z,48.61
2022-08-20T18:46:13.294Z,48.72
2022-08-20T18:48:50.864Z,49.55
2022-08-20T18:51:21.395Z,50.37
2022-08-20T18:53:51.111Z,50.89
2022-08-20T18:56:30.622Z,51.14
2022-08-20T18:59:01.946Z,51.78
2022-08-20T19:01:31.881Z,52.84
2022-08-20T19:03:58.503Z,52.68
2022-08-20T19:06:55.487Z,53.68
2022-08-20T19:09:36.233Z,53.88
2022-08-20T19:12:02.750Z,54.21
2022-08-20T19:14:45.693Z,54.72
2022-08-20T19:17:37.219Z,54.79
2022-08-20T19:20:11.068Z,56.30
2022-08-20T19:22:39.719Z,56.50
2022-08-20T19:25:07.171Z,57.43
2022-08-20T19:27:33.844Z,57.46
2022-08-20T19:30:01.361Z,57.81
2022-08-20T19:32:31.877Z,58.28
2022-08-20T19:35:08.432Z,58.66
2022-08-20T19:37:50.422Z,59.18
2022-08-20T19:40:29.489Z,59.46
2022-08-20T19:42:59.420Z,60.28
2022-08-20T19:45:47.119Z,59.75
2022-08-20T19:48:13.487Z,61.52
2022-08-20T19:50:52.234Z,61.46
2022-08-20T19:53:33.696Z,61.82
2022-08-20T19:56:05.432Z,62.72
2022-08-20T19:58:34.248Z,62.85
2022-08-20T20:01:03.556Z,63.73
2022-08-20T20:03:35.649Z,63.96
2022-08-20T20:06:17.174Z,64.30
2022-08-20T20:09:03.705Z,64.55
2022-08-20T20:11:45.212Z,65.07
2022-08-20T20:14:14.946Z,65.55
2022-08-20T20:16:42.571Z,65.89
2022-08-20T20:19:27.806Z,66.71
2022-08-20T20:22:19.015Z,66.42
2022-08-20T20:24:56.680Z,67.57
2022-08-20T20:27:25.830Z,67.76
2022-08-20T20:30:02.445Z,67.75
2022-08-20T20:32:30.331Z,68.23
2022-08-20T20:34:59.173Z,68.46
2022-08-20T20:37:55.958Z,68.27
2022-08-20T20:40:26.528Z,69.57
2022-08-20T20:43:08.529Z,69.05
2022-08-20T20:45:55.185Z,69.77
2022-08-20T20:48:26.119Z,69.95
2022-08-20T20:50:56.422Z,70.53
2022-08-20T20:53:53.225Z,70.22
2022-08-20T20:56:44.352Z,70.37
2022-08-20T20:59:11.034Z,71.77
2022-08-20T21:01:49.802Z,72.07
2022-08-20T21:04:18.489Z,72.39
2022-08-20T21:06:45.099Z,72.79
2022-08-20T21:09:12.136Z,73.08
2022-08-20T21:11:38.578Z,73.25
2022-08-20T21:14:05.037Z,73.33
2022-08-20T21:16:31.538Z,73.45
2022-08-20T21:18:58.371Z,73.61
2022-08-20T21:21:24.934Z,74.03
2022-08-20T21:23:51.735Z,74.01
2022-08-20T21:26:18.664Z,74.52
2022-08-20T21:28:45.101Z,74.64
2022-08-20T21:31:11.552Z,75.19
2022-08-20T21:33:37.973Z,75.71
2022-08-20T21:36:04.650Z,75.55
2022-08-20T21:38:31.159Z,75.97
2022-08-20T21:40:58.425Z,75.92
2022-08-20T21:43:26.769Z,76.03
2022-08-20T21:45:53.249Z,76.09
2022-08-20T21:48:20.049Z,76.46
2022-08-20T21:50:46.474Z,76.55
2022-08-20T21:53:13.246Z,76.76
2022-08-20T21:55:40.880Z,76.66
2022-08-20T21:58:08.647Z,77.31
2022-08-20T22:00:55.792Z,77.20
2022-08-20T22:03:28.391Z,77.90
2022-08-20T22:05:55.867Z,77.76
2022-08-20T22:08:26.147Z,77.52
2022-08-20T22:10:59.699Z,78.63
2022-08-20T22:13:32.788Z,78.13
2022-08-20T22:16:06.594Z,78.50
2022-08-20T22:18:33.657Z,78.47
2022-08-20T22:21:00.556Z,78.69
2022-08-20T22:23:27.163Z,78.44
2022-08-20T22:25:54.034Z,78.81
2022-08-20T22:28:20.966Z,79.08
2022-08-20T22:30:47.993Z,79.12
2022-08-20T22:33:20.889Z,79.38
2022-08-20T22:35:51.668Z,80.03
2022-08-20T22:38:18.877Z,79.36
2022-08-20T22:40:46.018Z,79.71
2022-08-20T22:43:12.973Z,79.70
2022-08-20T22:45:41.517Z,80.33
2022-08-20T22:48:09.117Z,80.12
2022-08-20T22:50:37.658Z,80.51
2022-08-20T22:53:06.236Z,80.89
2022-08-20T22:55:32.955Z,80.88
2022-08-20T22:57:59.454Z,81.46
2022-08-20T23:00:27.544Z,81.57
2022-08-20T23:02:57.734Z,82.32
2022-08-20T23:05:25.781Z,79.81
2022-08-20T23:07:54.239Z,81.25
2022-08-20T23:10:21.687Z,81.65
2022-08-20T23:12:48.202Z,81.41
2022-08-20T23:15:15.226Z,81.51
2022-08-20T23:17:41.682Z,81.68
2022-08-20T23:20:11.210Z,81.93
2022-08-20T23:22:37.736Z,81.77
2022-08-20T23:25:06.375Z,81.97
2022-08-20T23:27:40.441Z,81.98
2022-08-20T23:30:07.571Z,82.32
2022-08-20T23:32:34.077Z,82.64
2022-08-20T23:35:00.533Z,82.66
2022-08-20T23:37:27.115Z,82.70
2022-08-20T23:39:53.655Z,83.09
2022-08-20T23:42:20.121Z,83.04
2022-08-20T23:44:46.797Z,83.73
2022-08-20T23:47:19.917Z,84.57
2022-08-20T23:49:46.823Z,83.85
2022-08-20T23:52:13.320Z,83.93
2022-08-20T23:54:40.251Z,84.72
2022-08-20T23:57:08.097Z,84.17
2022-08-20T23:59:35.335Z,84.52
